createdAt,value
2023-05-13T03:59:20.278Z,56.20
2023-05-13T04:00:20.440Z,56.00
2023-05-13T04:01:20.197Z,55.81
2023-05-13T04:02:20.208Z,55.90
2023-05-13T04:03:20.218Z,55.71
2023-05-13T04:04:20.196Z,56.00
2023-05-13T04:05:20.205Z,55.71
2023-05-13T04:06:20.155Z,55.90
2023-05-13T04:07:20.161Z,56.10
2023-05-13T04:08:20.161Z,56.29
2023-05-13T04:09:20.150Z,56.48
2023-05-13T04:10:20.368Z,56.29
2023-05-13T04:11:20.152Z,56.29
2023-05-13T04:12:20.119Z,56.29
2023-05-13T04:13:20.122Z,56.41
2023-05-13T04:14:20.113Z,56.41
2023-05-13T04:15:20.133Z,56.32
2023-05-13T04:16:20.155Z,56.51
2023-05-13T04:17:20.148Z,56.22
2023-05-13T04:18:20.091Z,56.12
2023-05-13T04:19:20.118Z,56.32
2023-05-13T04:20:20.324Z,56.41
2023-05-13T04:21:20.105Z,56.41
2023-05-13T04:23:20.076Z,56.51
2023-05-13T04:24:20.074Z,56.60
2023-05-13T04:25:20.075Z,56.60
2023-05-13T04:26:20.083Z,56.41
2023-05-13T04:27:20.086Z,56.60
2023-05-13T04:28:20.056Z,56.22
2023-05-13T04:29:20.063Z,56.12
2023-05-13T04:30:20.266Z,56.41
2023-05-13T04:31:20.103Z,56.41
2023-05-13T04:32:20.048Z,56.32
2023-05-13T04:33:20.052Z,56.51
2023-05-13T04:34:20.047Z,56.12
2023-05-13T04:35:20.078Z,56.44
2023-05-13T04:36:20.039Z,56.22
2023-05-13T04:37:20.020Z,56.51
2023-05-13T04:38:20.027Z,56.51
2023-05-13T04:39:20.016Z,56.32
2023-05-13T04:40:20.191Z,56.44
2023-05-13T04:41:20.007Z,56.25
2023-05-13T04:42:20.027Z,56.54
2023-05-13T04:43:20.013Z,56.44
2023-05-13T04:44:20.002Z,56.73
2023-05-13T04:45:20.004Z,56.73
2023-05-13T04:46:20.031Z,56.25
2023-05-13T04:47:20.071Z,56.25
2023-05-13T04:48:20.014Z,56.35
2023-05-13T04:49:19.989Z,56.15
2023-05-13T04:50:20.110Z,56.44
2023-05-13T04:51:19.971Z,56.82
2023-05-13T04:52:19.970Z,56.73
2023-05-13T04:53:19.980Z,56.54
2023-05-13T04:54:19.956Z,56.44
2023-05-13T04:55:19.969Z,56.54
2023-05-13T04:56:19.945Z,56.35
2023-05-13T04:57:19.954Z,56.44
2023-05-13T04:58:19.976Z,56.15
2023-05-13T04:59:19.958Z,56.35
2023-05-13T05:00:20.082Z,56.25
2023-05-13T05:01:19.987Z,55.96
2023-05-13T05:02:19.925Z,55.87
2023-05-13T05:03:19.952Z,55.99
2023-05-13T05:04:19.987Z,56.18
2023-05-13T05:05:19.953Z,56.18
2023-05-13T05:06:19.930Z,55.99
2023-05-13T05:07:19.914Z,55.89
2023-05-13T05:08:19.929Z,55.79
2023-05-13T05:09:19.919Z,55.89
2023-05-13T05:10:20.251Z,56.57
2023-05-13T05:11:19.915Z,55.70
2023-05-13T05:12:19.904Z,56.18
2023-05-13T05:13:19.913Z,56.27
2023-05-13T05:14:19.897Z,56.27
2023-05-13T05:15:19.885Z,55.89
2023-05-13T05:16:19.909Z,56.27
2023-05-13T05:17:19.966Z,55.89
2023-05-13T05:18:19.929Z,55.41
2023-05-13T05:19:19.999Z,55.79
2023-05-13T05:20:20.117Z,55.31
2023-05-13T05:21:19.876Z,55.22
2023-05-13T05:22:19.861Z,55.51
2023-05-13T05:23:19.873Z,55.31
2023-05-13T05:24:19.864Z,55.60
2023-05-13T05:25:19.891Z,55.70
2023-05-13T05:26:19.865Z,55.51
2023-05-13T05:27:19.859Z,55.89
2023-05-13T05:28:19.873Z,55.41
2023-05-13T05:29:19.856Z,55.41
2023-05-13T05:30:20.107Z,55.89
2023-05-13T05:31:19.925Z,55.41
2023-05-13T05:32:19.879Z,55.51
2023-05-13T05:33:19.842Z,55.63
2023-05-13T05:34:19.831Z,56.01
2023-05-13T05:35:19.851Z,55.82
2023-05-13T05:36:20.551Z,55.92
2023-05-13T05:37:19.843Z,55.63
2023-05-13T05:38:19.843Z,55.73
2023-05-13T05:39:19.816Z,55.92
2023-05-13T05:40:19.950Z,55.82
2023-05-13T05:41:19.821Z,55.34
2023-05-13T05:42:19.818Z,55.24
2023-05-13T05:43:19.826Z,55.92
2023-05-13T05:44:19.808Z,55.54
2023-05-13T05:45:19.803Z,55.54
2023-05-13T05:46:19.885Z,55.54
2023-05-13T05:47:19.802Z,55.54
2023-05-13T05:48:19.787Z,55.76
2023-05-13T05:49:19.782Z,55.63
2023-05-13T05:50:20.030Z,55.66
2023-05-13T05:51:19.856Z,55.27
2023-05-13T05:52:19.779Z,55.18
2023-05-13T05:53:19.788Z,55.56
2023-05-13T05:54:19.769Z,55.36
2023-05-13T05:55:19.778Z,55.36
2023-05-13T05:56:19.826Z,55.18
2023-05-13T05:57:19.758Z,55.18
2023-05-13T05:58:19.761Z,55.76
2023-05-13T05:59:19.756Z,55.85
2023-05-13T06:00:19.971Z,56.16
2023-05-13T06:01:19.765Z,54.91
2023-05-13T06:02:19.799Z,55.59
2023-05-13T06:03:19.858Z,54.82
2023-05-13T06:04:19.776Z,55.49
2023-05-13T06:05:19.745Z,54.82
2023-05-13T06:06:19.771Z,55.49
2023-05-13T06:07:19.782Z,55.01
2023-05-13T06:08:19.727Z,55.01
2023-05-13T06:09:19.729Z,55.20
2023-05-13T06:10:19.935Z,55.30
2023-05-13T06:11:19.758Z,54.82
2023-05-13T06:12:19.732Z,54.72
2023-05-13T06:13:19.723Z,54.65
2023-05-13T06:14:19.720Z,55.23
2023-05-13T06:15:19.732Z,55.13
2023-05-13T06:16:19.749Z,54.84
2023-05-13T06:17:19.710Z,54.84
2023-05-13T06:18:19.735Z,54.94
2023-05-13T06:19:19.706Z,55.04
2023-05-13T06:20:20.020Z,54.36
2023-05-13T06:21:19.701Z,54.46
2023-05-13T06:22:19.710Z,54.94
2023-05-13T06:23:19.734Z,54.55
2023-05-13T06:24:19.700Z,54.94
2023-05-13T06:25:19.739Z,54.77
2023-05-13T06:26:19.713Z,54.77
2023-05-13T06:27:19.694Z,54.39
2023-05-13T06:28:19.709Z,54.39
2023-05-13T06:29:19.712Z,54.87
2023-05-13T06:30:20.065Z,54.77
2023-05-13T06:31:19.728Z,54.58
2023-05-13T06:32:19.689Z,54.77
2023-05-13T06:33:19.758Z,54.58
2023-05-13T06:34:19.691Z,54.58
2023-05-13T06:35:19.719Z,54.19
2023-05-13T06:36:19.690Z,54.22
2023-05-13T06:37:19.672Z,54.32
2023-05-13T06:38:19.680Z,54.13
2023-05-13T06:39:19.786Z,53.91
2023-05-13T06:40:19.990Z,54.61
2023-05-13T06:41:19.681Z,53.83
2023-05-13T06:42:19.666Z,54.51
2023-05-13T06:43:19.696Z,54.51
2023-05-13T06:44:19.667Z,54.32
2023-05-13T06:45:19.663Z,54.32
2023-05-13T06:46:19.725Z,54.22
2023-05-13T06:47:21.795Z,54.51
2023-05-13T06:48:19.658Z,54.44
2023-05-13T06:49:19.716Z,54.41
2023-05-13T06:50:19.779Z,54.03
2023-05-13T06:51:19.657Z,54.15
2023-05-13T06:52:19.680Z,54.05
2023-05-13T06:53:19.665Z,54.35
2023-05-13T06:54:19.666Z,54.35
2023-05-13T06:55:19.726Z,53.96
2023-05-13T06:56:19.654Z,54.15
2023-05-13T06:57:20.763Z,53.86
2023-05-13T06:58:19.667Z,53.86
2023-05-13T06:59:19.650Z,54.15
2023-05-13T07:00:19.764Z,54.05
2023-05-13T07:01:19.723Z,54.27
2023-05-13T07:02:19.658Z,54.37
2023-05-13T07:03:19.663Z,53.86
2023-05-13T07:04:19.772Z,53.69
2023-05-13T07:05:19.666Z,53.99
2023-05-13T07:06:19.648Z,53.99
2023-05-13T07:07:19.653Z,53.69
2023-05-13T07:08:19.632Z,53.59
2023-05-13T07:09:19.635Z,54.08
2023-05-13T07:10:19.757Z,53.59
2023-05-13T07:11:19.680Z,53.99
2023-05-13T07:12:19.633Z,53.99
2023-05-13T07:13:19.647Z,53.99
2023-05-13T07:14:19.642Z,53.41
2023-05-13T07:15:19.785Z,53.63
2023-05-13T07:16:19.629Z,53.79
2023-05-13T07:17:19.656Z,53.43
2023-05-13T07:18:19.654Z,53.72
2023-05-13T07:19:19.787Z,53.14
2023-05-13T07:20:20.087Z,53.63
2023-05-13T07:21:19.637Z,53.33
2023-05-13T07:22:19.617Z,53.33
2023-05-13T07:23:19.618Z,53.23
2023-05-13T07:24:19.622Z,53.23
2023-05-13T07:25:19.640Z,53.23
2023-05-13T07:26:19.650Z,53.53
2023-05-13T07:27:19.637Z,53.63
2023-05-13T07:28:19.624Z,53.14
2023-05-13T07:29:19.630Z,53.63
2023-05-13T07:30:19.709Z,53.55
2023-05-13T07:31:19.703Z,53.33
2023-05-13T07:32:19.658Z,53.45
2023-05-13T07:33:19.621Z,53.36
2023-05-13T07:34:19.619Z,53.63
2023-05-13T07:35:19.757Z,53.17
2023-05-13T07:36:19.643Z,53.65
2023-05-13T07:37:19.612Z,53.36
2023-05-13T07:38:19.615Z,52.87
2023-05-13T07:39:19.633Z,53.45
2023-05-13T07:40:19.672Z,52.78
2023-05-13T07:41:19.624Z,53.36
2023-05-13T07:42:19.612Z,53.07
2023-05-13T07:43:19.653Z,53.17
2023-05-13T07:44:19.630Z,53.07
2023-05-13T07:45:19.717Z,53.07
2023-05-13T07:46:19.647Z,53.07
2023-05-13T07:47:19.781Z,53.07
2023-05-13T07:48:19.612Z,53.07
2023-05-13T07:49:19.620Z,53.09
2023-05-13T07:50:19.628Z,53.00
2023-05-13T07:51:19.608Z,53.00
2023-05-13T07:52:19.638Z,53.00
2023-05-13T07:53:20.018Z,53.19
2023-05-13T07:54:19.624Z,53.29
2023-05-13T07:55:19.785Z,52.80
2023-05-13T07:56:19.618Z,53.09
2023-05-13T07:57:19.632Z,52.71
2023-05-13T07:58:19.646Z,52.90
2023-05-13T07:59:19.646Z,52.42
2023-05-13T08:00:19.635Z,52.80
2023-05-13T08:01:19.609Z,52.90
2023-05-13T08:02:19.628Z,53.00
2023-05-13T08:03:19.697Z,52.90
2023-05-13T08:04:19.780Z,53.00
2023-05-13T08:05:19.760Z,53.00
2023-05-13T08:06:19.632Z,53.00
2023-05-13T08:07:19.610Z,52.42
2023-05-13T08:08:19.616Z,52.61
2023-05-13T08:09:19.624Z,52.42
2023-05-13T08:10:19.614Z,52.93
2023-05-13T08:11:19.615Z,53.02
2023-05-13T08:12:19.611Z,52.83
2023-05-13T08:13:19.623Z,52.83
2023-05-13T08:14:19.634Z,53.02
2023-05-13T08:15:19.787Z,52.34
2023-05-13T08:16:19.625Z,52.83
2023-05-13T08:17:19.626Z,52.83
2023-05-13T08:18:19.641Z,52.25
2023-05-13T08:19:19.783Z,52.93
2023-05-13T08:20:19.620Z,52.34
2023-05-13T08:21:19.622Z,52.93
2023-05-13T08:22:19.616Z,52.34
2023-05-13T08:23:19.624Z,52.44
2023-05-13T08:24:19.646Z,52.54
2023-05-13T08:25:19.870Z,52.44
2023-05-13T08:26:19.622Z,52.44
2023-05-13T08:27:19.616Z,52.54
2023-05-13T08:28:19.612Z,52.54
2023-05-13T08:29:19.658Z,52.37
2023-05-13T08:30:19.640Z,52.34
2023-05-13T08:31:19.701Z,52.37
2023-05-13T08:32:19.859Z,52.34
2023-05-13T08:33:19.625Z,52.28
2023-05-13T08:34:19.618Z,52.47
2023-05-13T08:35:19.781Z,52.47
2023-05-13T08:36:19.631Z,52.18
2023-05-13T08:37:19.634Z,52.47
2023-05-13T08:38:19.660Z,52.66
2023-05-13T08:39:19.616Z,52.08
2023-05-13T08:40:19.635Z,52.76
2023-05-13T08:41:21.850Z,52.08
2023-05-13T08:42:19.631Z,51.98
2023-05-13T08:43:19.616Z,52.66
2023-05-13T08:44:19.624Z,51.79
2023-05-13T08:45:19.757Z,52.56
2023-05-13T08:46:19.674Z,51.69
2023-05-13T08:47:19.682Z,52.66
2023-05-13T08:48:19.628Z,51.79
2023-05-13T08:49:19.644Z,52.76
2023-05-13T08:50:19.632Z,52.37
2023-05-13T08:51:19.621Z,52.37
2023-05-13T08:52:19.625Z,51.89
2023-05-13T08:53:19.633Z,52.50
2023-05-13T08:54:21.092Z,51.72
2023-05-13T08:55:19.822Z,52.20
2023-05-13T08:56:19.652Z,52.11
2023-05-13T08:57:19.624Z,51.72
2023-05-13T08:58:19.635Z,52.11
2023-05-13T08:59:19.629Z,51.81
2023-05-13T09:00:21.566Z,52.11
2023-05-13T09:01:19.667Z,52.20
2023-05-13T09:02:19.631Z,52.20
2023-05-13T09:03:19.675Z,52.11
2023-05-13T09:04:19.649Z,52.11
2023-05-13T09:05:19.824Z,52.01
2023-05-13T09:06:19.633Z,52.01
2023-05-13T09:07:19.637Z,52.20
2023-05-13T09:08:19.667Z,52.01
2023-05-13T09:09:19.638Z,51.93
2023-05-13T09:10:19.640Z,52.01
2023-05-13T09:11:19.652Z,52.03
2023-05-13T09:12:19.654Z,51.75
2023-05-13T09:13:19.665Z,52.03
2023-05-13T09:14:19.643Z,52.03
2023-05-13T09:15:19.829Z,51.93
2023-05-13T09:16:19.662Z,51.84
2023-05-13T09:17:19.649Z,51.75
2023-05-13T09:18:19.774Z,51.93
2023-05-13T09:19:19.853Z,51.93
2023-05-13T09:20:19.668Z,51.65
2023-05-13T09:21:19.664Z,52.03
2023-05-13T09:22:19.681Z,52.03
2023-05-13T09:23:19.671Z,52.13
2023-05-13T09:24:19.678Z,52.13
2023-05-13T09:25:20.025Z,52.13
2023-05-13T09:26:19.653Z,52.03
2023-05-13T09:27:19.655Z,52.13
2023-05-13T09:28:19.653Z,52.13
2023-05-13T09:29:19.662Z,52.15
2023-05-13T09:30:19.751Z,52.03
2023-05-13T09:31:19.733Z,51.65
2023-05-13T09:32:19.665Z,52.06
2023-05-13T09:33:19.664Z,51.97
2023-05-13T09:34:19.657Z,51.84
2023-05-13T09:35:19.858Z,51.75
2023-05-13T09:36:19.668Z,51.97
2023-05-13T09:37:19.659Z,52.06
2023-05-13T09:38:19.656Z,52.06
2023-05-13T09:39:19.666Z,52.06
2023-05-13T09:40:19.805Z,52.06
2023-05-13T09:41:19.718Z,52.06
2023-05-13T09:42:19.740Z,52.25
2023-05-13T09:43:19.669Z,52.15
2023-05-13T09:44:19.667Z,52.06
2023-05-13T09:45:19.923Z,52.06
2023-05-13T09:46:19.692Z,51.67
2023-05-13T09:47:19.679Z,52.15
2023-05-13T09:48:19.697Z,52.15
2023-05-13T09:49:19.700Z,52.06
2023-05-13T09:50:19.900Z,52.25
2023-05-13T09:51:19.731Z,52.06
2023-05-13T09:52:19.678Z,51.67
2023-05-13T09:53:19.680Z,52.15
2023-05-13T09:54:19.693Z,51.67
2023-05-13T09:55:19.741Z,52.25
2023-05-13T09:56:19.694Z,52.25
2023-05-13T09:57:19.681Z,51.77
2023-05-13T09:58:19.727Z,52.06
2023-05-13T09:59:19.769Z,52.25
2023-05-13T10:00:31.802Z,52.19
2023-05-13T10:01:19.727Z,52.06
2023-05-13T10:02:19.713Z,52.19
2023-05-13T10:13:49.945Z,51.70
2023-05-13T10:14:49.900Z,51.50
2023-05-13T10:15:49.911Z,51.70
2023-05-13T10:16:49.946Z,51.99
2023-05-13T10:17:49.987Z,51.89
2023-05-13T10:18:49.964Z,51.79
2023-05-13T10:19:49.964Z,51.72
2023-05-13T10:20:49.918Z,51.89
2023-05-13T10:21:49.905Z,52.01
2023-05-13T10:22:49.912Z,51.82
2023-05-13T10:23:49.919Z,51.92
2023-05-13T10:24:49.903Z,51.92
2023-05-13T10:25:49.938Z,51.92
2023-05-13T10:26:49.920Z,52.01
2023-05-13T10:27:49.942Z,51.82
2023-05-13T10:28:49.911Z,51.92
2023-05-13T10:29:49.924Z,51.43
2023-05-13T10:30:49.917Z,52.04
2023-05-13T10:31:49.949Z,52.11
2023-05-13T10:32:49.998Z,52.04
2023-05-13T10:33:49.950Z,51.75
2023-05-13T10:34:49.938Z,51.75
2023-05-13T10:35:49.933Z,52.04
2023-05-13T10:36:49.951Z,51.75
2023-05-13T10:37:49.921Z,51.84
2023-05-13T10:38:49.970Z,51.67
2023-05-13T10:39:49.966Z,51.75
2023-05-13T10:40:49.940Z,51.75
2023-05-13T10:41:50.005Z,51.87
2023-05-13T10:42:49.982Z,51.97
2023-05-13T10:43:49.937Z,51.67
2023-05-13T10:44:49.950Z,51.77
2023-05-13T10:45:50.023Z,51.77
2023-05-13T10:46:50.075Z,51.77
2023-05-13T10:47:50.204Z,51.77
2023-05-13T10:48:50.055Z,51.48
2023-05-13T10:49:49.986Z,51.80
2023-05-13T10:50:49.959Z,51.80
2023-05-13T10:51:49.960Z,51.80
2023-05-13T10:52:49.991Z,51.90
2023-05-13T10:53:49.990Z,51.51
2023-05-13T10:54:49.964Z,51.90
2023-05-13T10:55:49.982Z,51.21
2023-05-13T10:56:49.971Z,51.53
2023-05-13T10:57:49.973Z,51.51
2023-05-13T10:58:49.999Z,50.95
2023-05-13T10:59:49.989Z,51.63
2023-05-13T11:00:50.026Z,51.53
2023-05-13T11:01:50.075Z,51.63
2023-05-13T11:02:50.085Z,51.65
2023-05-13T11:03:50.060Z,51.73
2023-05-13T11:04:50.026Z,51.53
2023-05-13T11:05:50.015Z,51.36
2023-05-13T11:06:50.070Z,51.26
2023-05-13T11:07:50.012Z,51.26
2023-05-13T11:08:50.009Z,51.07
2023-05-13T11:09:50.027Z,50.78
2023-05-13T11:10:50.173Z,50.78
2023-05-13T11:11:50.028Z,50.78
2023-05-13T11:12:50.035Z,50.90
2023-05-13T11:13:50.045Z,50.90
2023-05-13T11:14:50.086Z,50.80
2023-05-13T11:15:50.089Z,50.70
2023-05-13T11:16:50.050Z,50.60
2023-05-13T11:17:50.095Z,50.90
2023-05-13T11:18:50.083Z,50.92
2023-05-13T11:19:50.089Z,50.73
2023-05-13T11:20:52.877Z,50.63
2023-05-13T11:21:50.063Z,50.92
2023-05-13T11:22:50.074Z,50.82
2023-05-13T11:23:50.070Z,51.12
2023-05-13T11:24:50.081Z,50.56
2023-05-13T11:25:50.082Z,50.85
2023-05-13T11:26:50.091Z,50.65
2023-05-13T11:27:50.100Z,50.46
2023-05-13T11:28:50.095Z,50.65
2023-05-13T11:29:50.101Z,50.65
2023-05-13T11:30:50.103Z,50.20
2023-05-13T11:31:50.276Z,50.29
2023-05-13T11:32:50.143Z,50.49
2023-05-13T11:33:50.128Z,50.10
2023-05-13T11:34:50.126Z,50.20
2023-05-13T11:35:50.126Z,50.39
2023-05-13T11:36:50.187Z,50.39
2023-05-13T11:37:50.154Z,50.00
2023-05-13T11:38:50.141Z,50.20
2023-05-13T11:39:50.144Z,49.90
2023-05-13T11:40:50.159Z,49.71
2023-05-13T11:41:50.194Z,49.61
2023-05-13T11:42:50.178Z,49.92
2023-05-13T11:43:50.172Z,49.63
2023-05-13T11:44:50.199Z,49.71
2023-05-13T11:45:50.246Z,49.71
2023-05-13T11:46:50.179Z,49.53
2023-05-13T11:47:50.244Z,49.53
2023-05-13T11:48:50.227Z,49.43
2023-05-13T11:49:50.229Z,49.33
2023-05-13T11:50:50.205Z,49.07
2023-05-13T11:51:50.202Z,48.97
2023-05-13T11:52:50.204Z,49.07
2023-05-13T11:53:50.212Z,48.97
2023-05-13T11:54:50.206Z,48.99
2023-05-13T11:55:50.216Z,48.80
2023-05-13T11:56:50.232Z,48.90
2023-05-13T11:57:50.233Z,48.90
2023-05-13T11:58:50.235Z,48.80
2023-05-13T11:59:50.230Z,48.99
2023-05-13T12:00:50.229Z,48.90
2023-05-13T12:01:50.275Z,48.70
2023-05-13T12:02:50.410Z,48.43
2023-05-13T12:03:50.267Z,48.33
2023-05-13T12:04:50.359Z,48.33
2023-05-13T12:05:50.271Z,48.26
2023-05-13T12:06:50.259Z,48.07
2023-05-13T12:07:50.284Z,48.07
2023-05-13T12:08:50.279Z,47.99
2023-05-13T12:09:50.292Z,47.79
2023-05-13T12:10:50.296Z,47.89
2023-05-13T12:11:50.296Z,48.09
2023-05-13T12:12:50.332Z,48.07
2023-05-13T12:13:50.296Z,48.16
2023-05-13T12:14:50.354Z,48.07
2023-05-13T12:15:50.380Z,48.26
2023-05-13T12:16:50.315Z,47.97
2023-05-13T12:17:50.428Z,47.77
2023-05-13T12:18:50.376Z,47.30
2023-05-13T12:19:50.350Z,47.30
2023-05-13T12:20:50.357Z,47.42
2023-05-13T12:21:50.354Z,47.03
2023-05-13T12:22:50.365Z,47.03
2023-05-13T12:23:50.348Z,47.13
2023-05-13T12:24:50.353Z,46.86
2023-05-13T12:25:50.359Z,47.06
2023-05-13T12:26:50.361Z,47.06
2023-05-13T12:27:50.400Z,47.35
2023-05-13T12:28:50.385Z,46.69
2023-05-13T12:29:50.403Z,46.76
2023-05-13T12:30:50.438Z,47.16
2023-05-13T12:31:50.518Z,47.45
2023-05-13T12:32:50.425Z,46.74
2023-05-13T12:33:50.412Z,47.23
2023-05-13T12:34:50.407Z,47.33
2023-05-13T12:35:50.450Z,47.03
2023-05-13T12:36:50.439Z,47.42
2023-05-13T12:37:50.445Z,46.95
2023-05-13T12:38:50.435Z,46.37
2023-05-13T12:39:50.461Z,46.47
2023-05-13T12:40:50.488Z,46.39
2023-05-13T12:41:50.471Z,46.10
2023-05-13T12:42:50.459Z,46.20
2023-05-13T12:43:50.493Z,46.39
2023-05-13T12:44:50.483Z,46.37
2023-05-13T12:45:50.485Z,46.47
2023-05-13T12:46:50.503Z,46.94
2023-05-13T12:47:50.549Z,47.13
2023-05-13T12:48:50.499Z,47.03
2023-05-13T12:49:50.510Z,46.44
2023-05-13T12:50:50.529Z,46.30
2023-05-13T12:51:50.556Z,46.00
2023-05-13T12:52:50.536Z,45.34
2023-05-13T12:53:50.562Z,45.43
2023-05-13T12:54:50.510Z,45.53
2023-05-13T12:55:50.508Z,45.61
2023-05-13T12:56:50.519Z,45.88
2023-05-13T12:57:50.538Z,46.17
2023-05-13T12:58:50.568Z,46.44
2023-05-13T12:59:50.533Z,46.17
2023-05-13T13:00:50.591Z,46.17
2023-05-13T13:01:50.577Z,45.49
2023-05-13T13:02:50.671Z,46.15
2023-05-13T13:03:50.706Z,46.34
2023-05-13T13:04:50.588Z,46.54
2023-05-13T13:05:50.584Z,46.33
2023-05-13T13:06:50.586Z,46.52
2023-05-13T13:07:50.588Z,46.50
2023-05-13T13:08:50.597Z,46.69
2023-05-13T13:09:50.610Z,47.08
2023-05-13T13:10:50.613Z,46.50
2023-05-13T13:11:50.605Z,46.33
2023-05-13T13:12:50.596Z,45.86
2023-05-13T13:13:50.614Z,45.86
2023-05-13T13:14:50.599Z,46.15
2023-05-13T13:15:50.643Z,46.05
2023-05-13T13:16:50.697Z,45.49
2023-05-13T13:17:50.684Z,45.21
2023-05-13T13:18:52.386Z,44.84
2023-05-13T13:19:50.661Z,44.94
2023-05-13T13:20:50.638Z,45.41
2023-05-13T13:21:50.628Z,45.29
2023-05-13T13:22:50.646Z,45.39
2023-05-13T13:23:50.645Z,45.76
2023-05-13T13:24:50.663Z,45.95
2023-05-13T13:25:50.688Z,45.73
2023-05-13T13:26:50.688Z,46.23
2023-05-13T13:27:50.662Z,46.01
2023-05-13T13:28:50.696Z,46.30
2023-05-13T13:29:50.673Z,46.40
2023-05-13T13:30:50.685Z,46.47
2023-05-13T13:31:50.755Z,47.24
2023-05-13T13:32:50.787Z,46.84
2023-05-13T13:33:50.706Z,46.94
2023-05-13T13:34:50.703Z,47.02
2023-05-13T13:35:50.733Z,46.92
2023-05-13T13:36:50.726Z,46.53
2023-05-13T13:37:50.732Z,46.89
2023-05-13T13:38:50.727Z,46.99
2023-05-13T13:39:50.735Z,46.99
2023-05-13T13:40:50.715Z,46.89
2023-05-13T13:41:50.732Z,46.92
2023-05-13T13:42:50.719Z,46.33
2023-05-13T13:43:50.773Z,46.33
2023-05-13T13:44:50.790Z,46.26
2023-05-13T13:45:50.760Z,46.28
2023-05-13T13:46:50.845Z,46.20
2023-05-13T13:49:24.144Z,45.37
2023-05-13T13:50:23.396Z,45.37
2023-05-13T13:51:23.280Z,45.09
2023-05-13T13:52:23.287Z,44.92
2023-05-13T13:53:23.295Z,44.43
2023-05-13T13:54:23.321Z,44.65
2023-05-13T13:55:23.297Z,44.65
2023-05-13T13:56:23.299Z,44.57
2023-05-13T13:57:23.339Z,44.57
2023-05-13T13:58:23.317Z,44.40
2023-05-13T13:59:23.324Z,44.89
2023-05-13T14:00:23.552Z,44.40
2023-05-13T14:01:23.374Z,44.12
2023-05-13T14:02:23.517Z,44.01
2023-05-13T14:03:23.534Z,44.37
2023-05-13T14:04:23.390Z,44.87
2023-05-13T14:05:23.378Z,45.34
2023-05-13T14:06:23.357Z,45.51
2023-05-13T14:07:23.368Z,45.31
2023-05-13T14:08:23.424Z,45.70
2023-05-13T14:09:23.392Z,45.88
2023-05-13T14:10:23.538Z,45.95
2023-05-13T14:11:23.394Z,45.86
2023-05-13T14:12:23.398Z,46.13
2023-05-13T14:13:23.438Z,45.83
2023-05-13T14:14:23.411Z,46.11
2023-05-13T14:15:23.416Z,46.20
2023-05-13T14:16:23.515Z,46.28
2023-05-13T14:17:23.495Z,45.79
2023-05-13T14:18:23.511Z,46.36
2023-05-13T14:19:23.459Z,46.84
2023-05-13T14:20:23.653Z,46.06
2023-05-13T14:21:23.416Z,46.26
2023-05-13T14:22:23.458Z,46.01
2023-05-13T14:23:23.432Z,45.91
2023-05-13T14:24:23.438Z,45.93
2023-05-13T14:25:23.459Z,45.34
2023-05-13T14:26:23.450Z,45.37
2023-05-13T14:27:23.474Z,45.27
2023-05-13T14:28:25.151Z,45.19
2023-05-13T14:29:23.475Z,44.80
2023-05-13T14:30:23.757Z,44.82
2023-05-13T14:31:23.486Z,44.82
2023-05-13T14:32:23.509Z,44.84
2023-05-13T14:33:23.470Z,44.55
2023-05-13T14:34:23.510Z,44.57
2023-05-13T14:35:23.486Z,44.77
2023-05-13T14:36:23.492Z,44.57
2023-05-13T14:37:23.502Z,44.27
2023-05-13T14:38:23.504Z,44.40
2023-05-13T14:39:23.508Z,44.49
2023-05-13T14:40:23.706Z,44.59
2023-05-13T14:41:23.520Z,44.77
2023-05-13T14:42:23.568Z,45.14
2023-05-13T14:43:23.528Z,45.21
2023-05-13T14:44:23.531Z,45.31
2023-05-13T14:45:23.553Z,45.39
2023-05-13T14:46:23.598Z,45.39
2023-05-13T14:47:23.558Z,45.07
2023-05-13T14:48:23.558Z,45.76
2023-05-13T14:49:23.565Z,46.03
2023-05-13T14:50:23.759Z,45.93
2023-05-13T14:51:23.576Z,46.01
2023-05-13T14:52:23.575Z,45.81
2023-05-13T14:53:23.579Z,45.81
2023-05-13T14:54:23.585Z,46.01
2023-05-13T14:55:23.579Z,45.32
2023-05-13T14:56:23.607Z,46.01
2023-05-13T14:57:23.611Z,45.83
2023-05-13T14:58:23.606Z,45.15
2023-05-13T14:59:23.614Z,44.85
2023-05-13T15:00:23.758Z,45.47
2023-05-13T15:01:23.670Z,45.37
2023-05-13T15:02:23.677Z,45.07
2023-05-13T15:03:23.642Z,44.78
2023-05-13T15:04:23.633Z,45.27
2023-05-13T15:05:23.643Z,45.27
2023-05-13T15:06:23.634Z,44.98
2023-05-13T15:07:23.632Z,44.51
2023-05-13T15:08:23.633Z,44.90
2023-05-13T15:09:23.657Z,44.90
2023-05-13T15:10:23.944Z,44.60
2023-05-13T15:11:23.645Z,44.51
2023-05-13T15:12:23.683Z,44.90
2023-05-13T15:13:23.668Z,44.90
2023-05-13T15:14:23.658Z,45.00
2023-05-13T15:15:23.664Z,45.02
2023-05-13T15:16:23.766Z,44.80
2023-05-13T15:17:23.780Z,44.53
2023-05-13T15:18:23.714Z,44.70
2023-05-13T15:19:23.697Z,45.00
2023-05-13T15:20:23.980Z,44.98
2023-05-13T15:21:23.717Z,45.09
2023-05-13T15:22:23.732Z,45.00
2023-05-13T15:23:23.732Z,45.09
2023-05-13T15:24:23.736Z,44.68
2023-05-13T15:25:23.758Z,44.88
2023-05-13T15:26:23.732Z,45.34
2023-05-13T15:27:23.753Z,45.34
2023-05-13T15:28:23.753Z,45.34
2023-05-13T15:29:23.781Z,45.23
2023-05-13T15:30:23.909Z,45.81
2023-05-13T15:31:23.845Z,46.08
2023-05-13T15:32:23.761Z,45.89
2023-05-13T15:33:23.775Z,45.79
2023-05-13T15:34:23.787Z,45.98
2023-05-13T15:35:23.782Z,45.97
2023-05-13T15:36:23.770Z,46.16
2023-05-13T15:37:23.786Z,45.47
2023-05-13T15:38:23.787Z,46.06
2023-05-13T15:39:23.802Z,46.04
2023-05-13T15:40:23.880Z,46.04
2023-05-13T15:41:23.812Z,46.11
2023-05-13T15:42:23.794Z,46.21
2023-05-13T15:43:23.809Z,46.80
2023-05-13T15:44:23.824Z,46.09
2023-05-13T15:45:23.829Z,46.39
2023-05-13T15:46:23.927Z,46.58
2023-05-13T15:47:23.988Z,46.95
2023-05-13T15:48:23.904Z,46.46
2023-05-13T15:49:23.884Z,46.75
2023-05-13T15:50:24.088Z,46.92
2023-05-13T15:51:23.824Z,46.73
2023-05-13T15:52:23.853Z,46.44
2023-05-13T15:53:23.822Z,46.70
2023-05-13T15:54:23.850Z,46.90
2023-05-13T15:55:23.832Z,47.09
2023-05-13T15:56:23.856Z,46.88
2023-05-13T15:57:23.846Z,47.46
2023-05-13T15:58:23.853Z,47.17
2023-05-13T15:59:23.856Z,47.36
2023-05-13T16:00:24.159Z,46.95
2023-05-13T16:01:23.882Z,47.25
2023-05-13T16:12:58.713Z,47.49
2023-05-13T16:13:58.706Z,47.30
2023-05-13T16:14:58.685Z,47.39
2023-05-13T16:15:58.724Z,47.59
2023-05-13T16:16:58.674Z,47.47
2023-05-13T16:17:58.705Z,47.86
2023-05-13T16:18:58.756Z,47.76
2023-05-13T16:19:58.852Z,47.76
2023-05-13T16:20:58.668Z,47.86
2023-05-13T16:21:58.668Z,47.86
2023-05-13T16:22:58.687Z,47.96
2023-05-13T16:23:58.718Z,48.05
2023-05-13T16:24:58.700Z,47.93
2023-05-13T16:25:58.676Z,48.22
2023-05-13T16:26:58.682Z,48.22
2023-05-13T16:27:58.854Z,48.22
2023-05-13T16:28:58.742Z,48.22
2023-05-13T16:29:58.717Z,48.13
2023-05-13T16:30:58.890Z,48.41
2023-05-13T16:31:58.722Z,48.32
2023-05-13T16:32:58.746Z,48.41
2023-05-13T16:33:58.683Z,48.61
2023-05-13T16:34:58.706Z,48.58
2023-05-13T16:35:58.701Z,48.49
2023-05-13T16:36:59.300Z,48.58
2023-05-13T16:37:58.687Z,48.58
2023-05-13T16:38:58.681Z,48.68
2023-05-13T16:39:58.750Z,48.68
2023-05-13T16:40:58.743Z,48.68
2023-05-13T16:41:58.922Z,48.68
2023-05-13T16:43:01.113Z,48.78
2023-05-13T16:43:58.684Z,48.88
2023-05-13T16:44:58.726Z,48.78
2023-05-13T16:45:58.719Z,48.78
2023-05-13T16:46:58.697Z,48.68
2023-05-13T16:47:58.747Z,48.75
2023-05-13T16:49:00.183Z,48.66
2023-05-13T16:49:58.685Z,48.95
2023-05-13T16:50:58.700Z,48.95
2023-05-13T16:51:58.700Z,48.95
2023-05-13T16:52:58.685Z,48.85
2023-05-13T16:53:58.711Z,49.05
2023-05-13T16:54:59.402Z,49.05
2023-05-13T16:55:58.731Z,48.75
2023-05-13T16:56:58.692Z,48.95
2023-05-13T16:57:58.718Z,49.05
2023-05-13T16:58:58.724Z,49.15
2023-05-13T16:59:58.716Z,49.24
2023-05-13T17:00:59.464Z,49.15
2023-05-13T17:01:58.746Z,49.15
2023-05-13T17:02:58.771Z,49.24
2023-05-13T17:03:58.707Z,49.32
2023-05-13T17:04:58.698Z,49.34
2023-05-13T17:05:58.690Z,49.32
2023-05-13T17:06:59.419Z,49.32
2023-05-13T17:07:58.714Z,49.32
2023-05-13T17:08:58.700Z,49.32
2023-05-13T17:09:58.693Z,49.22
2023-05-13T17:10:58.708Z,49.32
2023-05-13T17:11:58.721Z,49.51
2023-05-13T17:12:58.697Z,49.41
2023-05-13T17:13:58.714Z,49.41
2023-05-13T17:14:58.703Z,49.51